[Skip to Content]
Hélimed
Site de réservation

R44 Porquerolles

Météo et prévisions du jour :

LFML 210530Z AUTO 00000KT CAVOK 05/01 Q1022 BECMG 30013G23KT

TAF LFML 210200Z 2103/2209 VRB03KT CAVOK 
      BECMG 2103/2107 30009KT 
      BECMG 2107/2111 30013G23KT 
      TEMPO 2111/2119 32023G33KT 
      BECMG 2123/2203 VRB03KT TX16/2113Z TN06/2104Z